sensor_id;sensor_type;location;lat;lon;timestamp;P1;durP1;ratioP1;P2;durP2;ratioP2
84482;SDS011;74703;51.284;22.590;2024-03-23T00:55:54;38.47;;;24.17;;
84482;SDS011;74703;51.284;22.590;2024-03-23T01:00:55;39.38;;;25.70;;
84482;SDS011;74703;51.284;22.590;2024-03-23T01:06:02;36.17;;;23.58;;
84482;SDS011;74703;51.284;22.590;2024-03-23T01:11:03;38.80;;;24.27;;
84482;SDS011;74703;51.284;22.590;2024-03-23T01:16:04;40.35;;;24.83;;
84482;SDS011;74703;51.284;22.590;2024-03-23T01:21:05;34.15;;;23.23;;
84482;SDS011;74703;51.284;22.590;2024-03-23T01:26:05;41.40;;;25.02;;
84482;SDS011;74703;51.284;22.590;2024-03-23T01:31:06;39.15;;;24.25;;
84482;SDS011;74703;51.284;22.590;2024-03-23T01:36:06;38.08;;;23.60;;
84482;SDS011;74703;51.284;22.590;2024-03-23T01:41:07;33.03;;;21.90;;
84482;SDS011;74703;51.284;22.590;2024-03-23T01:46:07;36.35;;;23.42;;
84482;SDS011;74703;51.284;22.590;2024-03-23T01:51:08;37.47;;;23.83;;
84482;SDS011;74703;51.284;22.590;2024-03-23T01:56:08;37.22;;;23.13;;
84482;SDS011;74703;51.284;22.590;2024-03-23T02:01:09;37.67;;;24.10;;
84482;SDS011;74703;51.284;22.590;2024-03-23T02:06:10;40.22;;;22.75;;
84482;SDS011;74703;51.284;22.590;2024-03-23T02:11:10;36.75;;;24.25;;
84482;SDS011;74703;51.284;22.590;2024-03-23T02:16:11;37.60;;;23.10;;
84482;SDS011;74703;51.284;22.590;2024-03-23T02:21:13;36.88;;;24.23;;
84482;SDS011;74703;51.284;22.590;2024-03-23T02:26:13;40.75;;;23.90;;
84482;SDS011;74703;51.284;22.590;2024-03-23T02:31:15;37.90;;;24.10;;
84482;SDS011;74703;51.284;22.590;2024-03-23T02:36:15;37.95;;;24.25;;
84482;SDS011;74703;51.284;22.590;2024-03-23T02:41:16;39.63;;;25.55;;
84482;SDS011;74703;51.284;22.590;2024-03-23T02:46:22;40.70;;;24.48;;
84482;SDS011;74703;51.284;22.590;2024-03-23T02:51:23;38.58;;;23.58;;
84482;SDS011;74703;51.284;22.590;2024-03-23T02:56:24;40.33;;;25.67;;
84482;SDS011;74703;51.284;22.590;2024-03-23T03:01:24;39.70;;;25.90;;
84482;SDS011;74703;51.284;22.590;2024-03-23T03:06:26;42.35;;;26.92;;
84482;SDS011;74703;51.284;22.590;2024-03-23T03:11:27;43.15;;;26.85;;
84482;SDS011;74703;51.284;22.590;2024-03-23T03:16:28;45.72;;;29.15;;
84482;SDS011;74703;51.284;22.590;2024-03-23T03:21:28;48.63;;;28.75;;
84482;SDS011;74703;51.284;22.590;2024-03-23T03:26:29;44.78;;;28.02;;
84482;SDS011;74703;51.284;22.590;2024-03-23T03:31:29;47.60;;;29.77;;
84482;SDS011;74703;51.284;22.590;2024-03-23T03:36:30;46.92;;;29.55;;
84482;SDS011;74703;51.284;22.590;2024-03-23T03:41:31;46.88;;;30.95;;
84482;SDS011;74703;51.284;22.590;2024-03-23T03:46:32;47.55;;;30.83;;
84482;SDS011;74703;51.284;22.590;2024-03-23T03:51:32;49.72;;;31.25;;
84482;SDS011;74703;51.284;22.590;2024-03-23T03:56:33;50.92;;;31.48;;
84482;SDS011;74703;51.284;22.590;2024-03-23T04:01:34;53.05;;;30.63;;
84482;SDS011;74703;51.284;22.590;2024-03-23T04:06:34;47.05;;;30.33;;
84482;SDS011;74703;51.284;22.590;2024-03-23T04:11:35;52.67;;;31.67;;
84482;SDS011;74703;51.284;22.590;2024-03-23T04:16:36;55.15;;;32.85;;
84482;SDS011;74703;51.284;22.590;2024-03-23T04:21:37;56.88;;;33.70;;
84482;SDS011;74703;51.284;22.590;2024-03-23T04:26:41;51.10;;;28.98;;
84482;SDS011;74703;51.284;22.590;2024-03-23T04:31:42;47.33;;;30.05;;
84482;SDS011;74703;51.284;22.590;2024-03-23T04:36:43;54.50;;;32.13;;
84482;SDS011;74703;51.284;22.590;2024-03-23T04:41:43;55.28;;;33.60;;
84482;SDS011;74703;51.284;22.590;2024-03-23T04:46:44;53.47;;;31.98;;
84482;SDS011;74703;51.284;22.590;2024-03-23T04:51:44;54.38;;;33.08;;
84482;SDS011;74703;51.284;22.590;2024-03-23T04:56:46;50.75;;;31.98;;
84482;SDS011;74703;51.284;22.590;2024-03-23T05:01:46;56.83;;;33.13;;
84482;SDS011;74703;51.284;22.590;2024-03-23T05:06:47;56.58;;;33.10;;
84482;SDS011;74703;51.284;22.590;2024-03-23T05:11:48;56.92;;;34.15;;
84482;SDS011;74703;51.284;22.590;2024-03-23T05:16:48;58.65;;;35.92;;
84482;SDS011;74703;51.284;22.590;2024-03-23T05:21:49;51.45;;;31.45;;
84482;SDS011;74703;51.284;22.590;2024-03-23T05:26:50;52.97;;;31.63;;
84482;SDS011;74703;51.284;22.590;2024-03-23T05:31:51;55.45;;;32.17;;
84482;SDS011;74703;51.284;22.590;2024-03-23T05:36:52;54.17;;;33.95;;
84482;SDS011;74703;51.284;22.590;2024-03-23T05:41:52;61.58;;;36.63;;
84482;SDS011;74703;51.284;22.590;2024-03-23T05:46:53;51.97;;;34.28;;
84482;SDS011;74703;51.284;22.590;2024-03-23T05:51:53;52.60;;;31.88;;
84482;SDS011;74703;51.284;22.590;2024-03-23T05:56:55;51.60;;;30.48;;
84482;SDS011;74703;51.284;22.590;2024-03-23T06:01:56;53.15;;;29.13;;
84482;SDS011;74703;51.284;22.590;2024-03-23T06:06:56;47.17;;;30.95;;
84482;SDS011;74703;51.284;22.590;2024-03-23T06:11:58;50.42;;;30.70;;
84482;SDS011;74703;51.284;22.590;2024-03-23T06:16:58;48.13;;;28.05;;
84482;SDS011;74703;51.284;22.590;2024-03-23T06:21:59;51.58;;;28.50;;
84482;SDS011;74703;51.284;22.590;2024-03-23T06:27:00;48.67;;;28.27;;
84482;SDS011;74703;51.284;22.590;2024-03-23T06:32:00;40.92;;;26.08;;
84482;SDS011;74703;51.284;22.590;2024-03-23T06:37:01;46.00;;;28.40;;
84482;SDS011;74703;51.284;22.590;2024-03-23T06:42:03;50.50;;;28.77;;
84482;SDS011;74703;51.284;22.590;2024-03-23T06:47:04;51.15;;;29.00;;
84482;SDS011;74703;51.284;22.590;2024-03-23T06:52:05;43.47;;;28.13;;
84482;SDS011;74703;51.284;22.590;2024-03-23T06:57:06;45.90;;;27.40;;
84482;SDS011;74703;51.284;22.590;2024-03-23T07:02:07;44.72;;;26.52;;
84482;SDS011;74703;51.284;22.590;2024-03-23T07:07:10;41.33;;;24.63;;
84482;SDS011;74703;51.284;22.590;2024-03-23T07:12:11;34.67;;;22.20;;
84482;SDS011;74703;51.284;22.590;2024-03-23T07:17:12;37.67;;;21.95;;
84482;SDS011;74703;51.284;22.590;2024-03-23T07:22:13;33.10;;;19.63;;
84482;SDS011;74703;51.284;22.590;2024-03-23T07:27:13;35.08;;;19.67;;
84482;SDS011;74703;51.284;22.590;2024-03-23T07:32:14;25.33;;;16.85;;
84482;SDS011;74703;51.284;22.590;2024-03-23T07:37:14;35.00;;;21.80;;
84482;SDS011;74703;51.284;22.590;2024-03-23T07:42:15;97.05;;;46.95;;
84482;SDS011;74703;51.284;22.590;2024-03-23T07:47:16;148.07;;;83.03;;
84482;SDS011;74703;51.284;22.590;2024-03-23T07:52:16;43.55;;;29.55;;
84482;SDS011;74703;51.284;22.590;2024-03-23T07:57:17;42.63;;;25.98;;
84482;SDS011;74703;51.284;22.590;2024-03-23T08:02:18;31.02;;;18.42;;
84482;SDS011;74703;51.284;22.590;2024-03-23T08:07:18;41.97;;;26.00;;
84482;SDS011;74703;51.284;22.590;2024-03-23T08:12:18;39.70;;;23.02;;
84482;SDS011;74703;51.284;22.590;2024-03-23T08:17:20;53.85;;;28.85;;
84482;SDS011;74703;51.284;22.590;2024-03-23T08:22:20;49.53;;;27.23;;
84482;SDS011;74703;51.284;22.590;2024-03-23T08:27:22;34.47;;;23.02;;
84482;SDS011;74703;51.284;22.590;2024-03-23T08:32:22;41.72;;;26.38;;
84482;SDS011;74703;51.284;22.590;2024-03-23T08:37:23;37.55;;;23.60;;
84482;SDS011;74703;51.284;22.590;2024-03-23T08:42:24;27.42;;;18.77;;
84482;SDS011;74703;51.284;22.590;2024-03-23T08:47:25;30.08;;;18.40;;
84482;SDS011;74703;51.284;22.590;2024-03-23T08:52:26;30.42;;;18.48;;
84482;SDS011;74703;51.284;22.590;2024-03-23T08:57:28;29.67;;;20.42;;
84482;SDS011;74703;51.284;22.590;2024-03-23T09:02:29;32.63;;;19.52;;
84482;SDS011;74703;51.284;22.590;2024-03-23T09:07:31;32.55;;;18.00;;
84482;SDS011;74703;51.284;22.590;2024-03-23T09:12:31;26.10;;;17.05;;
84482;SDS011;74703;51.284;22.590;2024-03-23T09:17:32;29.63;;;16.75;;
84482;SDS011;74703;51.284;22.590;2024-03-23T09:22:32;31.42;;;20.73;;
84482;SDS011;74703;51.284;22.590;2024-03-23T09:27:33;40.72;;;25.63;;
84482;SDS011;74703;51.284;22.590;2024-03-23T09:32:33;43.55;;;27.40;;
84482;SDS011;74703;51.284;22.590;2024-03-23T09:37:34;50.78;;;30.05;;
84482;SDS011;74703;51.284;22.590;2024-03-23T09:42:34;31.33;;;20.17;;
84482;SDS011;74703;51.284;22.590;2024-03-23T09:47:35;30.20;;;19.27;;
84482;SDS011;74703;51.284;22.590;2024-03-23T09:52:36;31.30;;;20.48;;
84482;SDS011;74703;51.284;22.590;2024-03-23T09:57:36;38.70;;;21.48;;
84482;SDS011;74703;51.284;22.590;2024-03-23T10:02:37;30.65;;;18.63;;
84482;SDS011;74703;51.284;22.590;2024-03-23T10:07:38;28.88;;;17.35;;
84482;SDS011;74703;51.284;22.590;2024-03-23T10:12:43;27.73;;;18.27;;
84482;SDS011;74703;51.284;22.590;2024-03-23T10:17:51;22.77;;;14.50;;
84482;SDS011;74703;51.284;22.590;2024-03-23T10:22:52;24.52;;;15.88;;
84482;SDS011;74703;51.284;22.590;2024-03-23T10:27:59;23.88;;;15.90;;
84482;SDS011;74703;51.284;22.590;2024-03-23T10:33:10;23.40;;;16.63;;
84482;SDS011;74703;51.284;22.590;2024-03-23T10:38:11;26.75;;;16.00;;
84482;SDS011;74703;51.284;22.590;2024-03-23T10:43:13;32.53;;;19.27;;
84482;SDS011;74703;51.284;22.590;2024-03-23T10:48:14;28.70;;;15.10;;
84482;SDS011;74703;51.284;22.590;2024-03-23T10:53:15;23.90;;;15.05;;
84482;SDS011;74703;51.284;22.590;2024-03-23T10:58:19;22.02;;;13.52;;
84482;SDS011;74703;51.284;22.590;2024-03-23T11:03:34;20.90;;;11.88;;
84482;SDS011;74703;51.284;22.590;2024-03-23T11:08:37;22.52;;;12.60;;
84482;SDS011;74703;51.284;22.590;2024-03-23T11:13:39;19.73;;;12.25;;
84482;SDS011;74703;51.284;22.590;2024-03-23T11:18:40;24.10;;;16.00;;
84482;SDS011;74703;51.284;22.590;2024-03-23T11:23:41;19.75;;;14.05;;
84482;SDS011;74703;51.284;22.590;2024-03-23T11:28:42;21.02;;;13.55;;
84482;SDS011;74703;51.284;22.590;2024-03-23T11:33:42;16.52;;;12.95;;
84482;SDS011;74703;51.284;22.590;2024-03-23T11:38:43;16.83;;;10.38;;
84482;SDS011;74703;51.284;22.590;2024-03-23T11:43:44;17.33;;;11.10;;
84482;SDS011;74703;51.284;22.590;2024-03-23T11:48:49;15.52;;;11.18;;
84482;SDS011;74703;51.284;22.590;2024-03-23T11:53:51;17.23;;;11.87;;
84482;SDS011;74703;51.284;22.590;2024-03-23T11:58:51;16.20;;;11.73;;
84482;SDS011;74703;51.284;22.590;2024-03-23T12:03:53;16.35;;;11.63;;
84482;SDS011;74703;51.284;22.590;2024-03-23T12:08:53;20.02;;;13.68;;
84482;SDS011;74703;51.284;22.590;2024-03-23T12:14:06;18.75;;;12.23;;
84482;SDS011;74703;51.284;22.590;2024-03-23T12:19:06;27.55;;;14.88;;
84482;SDS011;74703;51.284;22.590;2024-03-23T12:24:07;17.70;;;11.65;;
84482;SDS011;74703;51.284;22.590;2024-03-23T12:29:08;19.00;;;12.15;;
84482;SDS011;74703;51.284;22.590;2024-03-23T12:34:09;16.38;;;10.65;;
84482;SDS011;74703;51.284;22.590;2024-03-23T12:39:09;15.27;;;10.98;;
84482;SDS011;74703;51.284;22.590;2024-03-23T12:44:10;14.00;;;10.07;;
84482;SDS011;74703;51.284;22.590;2024-03-23T12:49:12;14.73;;;10.60;;
84482;SDS011;74703;51.284;22.590;2024-03-23T12:54:12;14.15;;;9.95;;
84482;SDS011;74703;51.284;22.590;2024-03-23T12:59:13;18.02;;;11.00;;
84482;SDS011;74703;51.284;22.590;2024-03-23T13:04:14;12.90;;;9.77;;
84482;SDS011;74703;51.284;22.590;2024-03-23T13:09:15;17.90;;;10.70;;
84482;SDS011;74703;51.284;22.590;2024-03-23T13:14:17;22.83;;;14.52;;
84482;SDS011;74703;51.284;22.590;2024-03-23T13:19:18;23.48;;;14.30;;
84482;SDS011;74703;51.284;22.590;2024-03-23T13:24:21;14.77;;;10.75;;
84482;SDS011;74703;51.284;22.590;2024-03-23T13:29:24;17.80;;;12.30;;
84482;SDS011;74703;51.284;22.590;2024-03-23T13:34:25;16.05;;;11.00;;
84482;SDS011;74703;51.284;22.590;2024-03-23T13:39:25;15.18;;;10.15;;
84482;SDS011;74703;51.284;22.590;2024-03-23T13:44:27;67.55;;;33.15;;
84482;SDS011;74703;51.284;22.590;2024-03-23T13:49:29;95.80;;;49.65;;
84482;SDS011;74703;51.284;22.590;2024-03-23T13:54:30;95.03;;;57.92;;
84482;SDS011;74703;51.284;22.590;2024-03-23T13:59:31;21.30;;;15.18;;
84482;SDS011;74703;51.284;22.590;2024-03-23T14:04:32;16.02;;;9.95;;
84482;SDS011;74703;51.284;22.590;2024-03-23T14:09:32;16.25;;;11.75;;
84482;SDS011;74703;51.284;22.590;2024-03-23T14:14:33;12.95;;;10.07;;
84482;SDS011;74703;51.284;22.590;2024-03-23T14:19:33;12.90;;;8.80;;
84482;SDS011;74703;51.284;22.590;2024-03-23T14:24:34;12.15;;;7.07;;
84482;SDS011;74703;51.284;22.590;2024-03-23T14:29:34;12.55;;;6.97;;
84482;SDS011;74703;51.284;22.590;2024-03-23T14:34:35;12.55;;;8.00;;
84482;SDS011;74703;51.284;22.590;2024-03-23T14:39:36;14.25;;;8.60;;
84482;SDS011;74703;51.284;22.590;2024-03-23T14:44:39;12.75;;;8.02;;
84482;SDS011;74703;51.284;22.590;2024-03-23T14:49:39;11.63;;;8.10;;
84482;SDS011;74703;51.284;22.590;2024-03-23T14:54:40;11.63;;;8.25;;
84482;SDS011;74703;51.284;22.590;2024-03-23T14:59:40;13.90;;;8.15;;
84482;SDS011;74703;51.284;22.590;2024-03-23T15:04:41;10.10;;;8.05;;
84482;SDS011;74703;51.284;22.590;2024-03-23T15:09:42;16.20;;;10.65;;
84482;SDS011;74703;51.284;22.590;2024-03-23T15:14:42;24.55;;;15.23;;
84482;SDS011;74703;51.284;22.590;2024-03-23T15:19:43;12.73;;;8.13;;
84482;SDS011;74703;51.284;22.590;2024-03-23T15:24:43;13.93;;;7.82;;
84482;SDS011;74703;51.284;22.590;2024-03-23T15:29:44;12.23;;;7.88;;
84482;SDS011;74703;51.284;22.590;2024-03-23T15:34:46;12.10;;;9.23;;
84482;SDS011;74703;51.284;22.590;2024-03-23T15:39:46;11.77;;;8.35;;
84482;SDS011;74703;51.284;22.590;2024-03-23T15:44:47;17.95;;;10.45;;
84482;SDS011;74703;51.284;22.590;2024-03-23T15:49:48;13.40;;;9.77;;
84482;SDS011;74703;51.284;22.590;2024-03-23T15:54:48;16.60;;;10.35;;
84482;SDS011;74703;51.284;22.590;2024-03-23T15:59:49;15.55;;;10.50;;
84482;SDS011;74703;51.284;22.590;2024-03-23T16:04:50;18.80;;;10.32;;
84482;SDS011;74703;51.284;22.590;2024-03-23T16:09:50;21.20;;;11.15;;
84482;SDS011;74703;51.284;22.590;2024-03-23T16:14:50;17.13;;;10.25;;
84482;SDS011;74703;51.284;22.590;2024-03-23T16:19:51;14.02;;;10.77;;
84482;SDS011;74703;51.284;22.590;2024-03-23T16:24:51;19.10;;;12.73;;
84482;SDS011;74703;51.284;22.590;2024-03-23T16:29:53;16.80;;;12.13;;
84482;SDS011;74703;51.284;22.590;2024-03-23T16:34:53;17.33;;;10.80;;
84482;SDS011;74703;51.284;22.590;2024-03-23T16:39:54;21.60;;;12.77;;
84482;SDS011;74703;51.284;22.590;2024-03-23T16:44:54;24.63;;;14.55;;
84482;SDS011;74703;51.284;22.590;2024-03-23T16:49:55;24.25;;;13.48;;
84482;SDS011;74703;51.284;22.590;2024-03-23T16:54:57;22.48;;;14.25;;
84482;SDS011;74703;51.284;22.590;2024-03-23T16:59:57;13.07;;;10.32;;
84482;SDS011;74703;51.284;22.590;2024-03-23T17:04:58;38.50;;;20.33;;
84482;SDS011;74703;51.284;22.590;2024-03-23T17:09:58;26.48;;;15.88;;
84482;SDS011;74703;51.284;22.590;2024-03-23T17:14:58;22.40;;;14.13;;
84482;SDS011;74703;51.284;22.590;2024-03-23T17:20:03;26.75;;;18.85;;
84482;SDS011;74703;51.284;22.590;2024-03-23T17:25:05;25.55;;;14.45;;
84482;SDS011;74703;51.284;22.590;2024-03-23T17:30:06;38.88;;;23.15;;
84482;SDS011;74703;51.284;22.590;2024-03-23T17:35:07;27.30;;;16.70;;
84482;SDS011;74703;51.284;22.590;2024-03-23T17:40:07;7.50;;;4.63;;
84482;SDS011;74703;51.284;22.590;2024-03-23T17:45:09;6.60;;;4.13;;
84482;SDS011;74703;51.284;22.590;2024-03-23T17:50:10;6.38;;;3.20;;
84482;SDS011;74703;51.284;22.590;2024-03-23T17:55:11;5.55;;;3.78;;
84482;SDS011;74703;51.284;22.590;2024-03-23T18:00:12;9.95;;;5.00;;
84482;SDS011;74703;51.284;22.590;2024-03-23T18:05:14;10.57;;;5.05;;
84482;SDS011;74703;51.284;22.590;2024-03-23T18:10:15;8.05;;;4.80;;
84482;SDS011;74703;51.284;22.590;2024-03-23T18:15:16;59.90;;;36.33;;
84482;SDS011;74703;51.284;22.590;2024-03-23T18:20:16;48.17;;;29.67;;
84482;SDS011;74703;51.284;22.590;2024-03-23T18:25:17;10.55;;;7.25;;
84482;SDS011;74703;51.284;22.590;2024-03-23T18:30:17;14.77;;;10.80;;
84482;SDS011;74703;51.284;22.590;2024-03-23T18:35:18;17.38;;;10.48;;
84482;SDS011;74703;51.284;22.590;2024-03-23T18:40:18;11.20;;;8.48;;
84482;SDS011;74703;51.284;22.590;2024-03-23T18:45:19;7.32;;;5.22;;
84482;SDS011;74703;51.284;22.590;2024-03-23T18:50:20;20.15;;;9.90;;
84482;SDS011;74703;51.284;22.590;2024-03-23T18:55:21;13.80;;;7.82;;
84482;SDS011;74703;51.284;22.590;2024-03-23T19:00:21;14.63;;;6.18;;
84482;SDS011;74703;51.284;22.590;2024-03-23T19:05:22;10.10;;;6.95;;
84482;SDS011;74703;51.284;22.590;2024-03-23T19:10:24;14.23;;;8.30;;
84482;SDS011;74703;51.284;22.590;2024-03-23T19:15:24;8.43;;;6.10;;
84482;SDS011;74703;51.284;22.590;2024-03-23T19:20:26;13.13;;;7.50;;
84482;SDS011;74703;51.284;22.590;2024-03-23T19:25:27;9.55;;;6.93;;
84482;SDS011;74703;51.284;22.590;2024-03-23T19:30:28;10.77;;;7.40;;
84482;SDS011;74703;51.284;22.590;2024-03-23T19:35:30;11.60;;;7.43;;
84482;SDS011;74703;51.284;22.590;2024-03-23T19:40:30;11.30;;;7.18;;
84482;SDS011;74703;51.284;22.590;2024-03-23T19:45:32;12.23;;;8.55;;
84482;SDS011;74703;51.284;22.590;2024-03-23T19:50:34;15.63;;;9.43;;
84482;SDS011;74703;51.284;22.590;2024-03-23T19:55:37;10.10;;;6.05;;
84482;SDS011;74703;51.284;22.590;2024-03-23T20:00:38;9.13;;;5.90;;
84482;SDS011;74703;51.284;22.590;2024-03-23T20:05:39;8.00;;;5.70;;
84482;SDS011;74703;51.284;22.590;2024-03-23T20:10:45;8.20;;;4.03;;
84482;SDS011;74703;51.284;22.590;2024-03-23T20:15:53;5.95;;;3.83;;
84482;SDS011;74703;51.284;22.590;2024-03-23T20:20:54;3.90;;;3.40;;
84482;SDS011;74703;51.284;22.590;2024-03-23T20:25:57;6.72;;;3.97;;
84482;SDS011;74703;51.284;22.590;2024-03-23T20:30:59;6.78;;;3.42;;
84482;SDS011;74703;51.284;22.590;2024-03-23T20:36:01;6.60;;;4.10;;
84482;SDS011;74703;51.284;22.590;2024-03-23T20:41:02;6.13;;;4.53;;
84482;SDS011;74703;51.284;22.590;2024-03-23T20:46:03;7.45;;;5.10;;
84482;SDS011;74703;51.284;22.590;2024-03-23T20:51:03;12.77;;;7.10;;
84482;SDS011;74703;51.284;22.590;2024-03-23T20:56:04;39.67;;;16.10;;
84482;SDS011;74703;51.284;22.590;2024-03-23T21:01:07;12.25;;;7.43;;
84482;SDS011;74703;51.284;22.590;2024-03-23T21:06:09;7.40;;;5.50;;
84482;SDS011;74703;51.284;22.590;2024-03-23T21:11:10;9.82;;;6.10;;
84482;SDS011;74703;51.284;22.590;2024-03-23T21:16:10;7.22;;;5.15;;
84482;SDS011;74703;51.284;22.590;2024-03-23T21:21:11;6.35;;;3.38;;
84482;SDS011;74703;51.284;22.590;2024-03-23T21:26:12;5.05;;;3.25;;
84482;SDS011;74703;51.284;22.590;2024-03-23T21:31:13;4.75;;;3.35;;
84482;SDS011;74703;51.284;22.590;2024-03-23T21:36:13;5.15;;;3.38;;
84482;SDS011;74703;51.284;22.590;2024-03-23T21:41:14;3.75;;;2.95;;
84482;SDS011;74703;51.284;22.590;2024-03-23T21:46:14;2.17;;;1.90;;
84482;SDS011;74703;51.284;22.590;2024-03-23T21:51:15;2.45;;;1.83;;
84482;SDS011;74703;51.284;22.590;2024-03-23T21:56:18;4.57;;;2.30;;
84482;SDS011;74703;51.284;22.590;2024-03-23T22:01:18;4.38;;;2.42;;
84482;SDS011;74703;51.284;22.590;2024-03-23T22:06:20;4.55;;;3.00;;
84482;SDS011;74703;51.284;22.590;2024-03-23T22:11:20;3.70;;;2.03;;
84482;SDS011;74703;51.284;22.590;2024-03-23T22:16:21;3.58;;;2.47;;
84482;SDS011;74703;51.284;22.590;2024-03-23T22:21:21;4.57;;;3.20;;
84482;SDS011;74703;51.284;22.590;2024-03-23T22:26:22;4.50;;;3.55;;
84482;SDS011;74703;51.284;22.590;2024-03-23T22:31:22;5.57;;;3.65;;
84482;SDS011;74703;51.284;22.590;2024-03-23T22:36:23;7.13;;;3.83;;
84482;SDS011;74703;51.284;22.590;2024-03-23T22:41:24;4.35;;;3.55;;
84482;SDS011;74703;51.284;22.590;2024-03-23T22:46:24;8.48;;;5.72;;
84482;SDS011;74703;51.284;22.590;2024-03-23T22:51:25;10.82;;;8.00;;
84482;SDS011;74703;51.284;22.590;2024-03-23T22:56:25;11.40;;;7.90;;
84482;SDS011;74703;51.284;22.590;2024-03-23T23:01:26;8.10;;;6.47;;
84482;SDS011;74703;51.284;22.590;2024-03-23T23:06:27;7.30;;;5.50;;
84482;SDS011;74703;51.284;22.590;2024-03-23T23:11:28;6.07;;;4.75;;
84482;SDS011;74703;51.284;22.590;2024-03-23T23:16:28;8.70;;;5.32;;
84482;SDS011;74703;51.284;22.590;2024-03-23T23:21:29;5.60;;;3.78;;
84482;SDS011;74703;51.284;22.590;2024-03-23T23:26:30;7.30;;;4.85;;
84482;SDS011;74703;51.284;22.590;2024-03-23T23:31:31;7.32;;;4.93;;
84482;SDS011;74703;51.284;22.590;2024-03-23T23:36:31;6.82;;;4.53;;
84482;SDS011;74703;51.284;22.590;2024-03-23T23:41:32;9.35;;;5.57;;
84482;SDS011;74703;51.284;22.590;2024-03-23T23:46:32;7.78;;;5.22;;
84482;SDS011;74703;51.284;22.590;2024-03-23T23:51:33;18.38;;;8.13;;
84482;SDS011;74703;51.284;22.590;2024-03-23T23:56:33;10.45;;;6.47;;
